Time;durP1;ratioP1;P1;durP2;ratioP2;P2;SDS_P1;SDS_P2;PMS_P1;PMS_P2;Temp;Humidity;BMP_temperature;BMP_pressure;BME280_temperature;BME280_humidity;BME280_pressure;Samples;Min_cycle;Max_cycle;Signal;HPM_P1;HPM_P2
2023/09/26 00:00:08;;;;;;;5.83;3.00;;;;;;;;;;5079669;28;20589;-72
2023/09/26 00:02:36;;;;;;;3.87;2.83;;;;;;;;;;5079886;28;20210;-71
2023/09/26 00:05:05;;;;;;;5.03;3.27;;;;;;;;;;5079696;28;20654;-70
2023/09/26 00:07:35;;;;;;;5.27;3.00;;;;;;;;;;5079483;28;20255;-71
2023/09/26 00:10:04;;;;;;;3.77;2.80;;;;;;;;;;5079373;28;20249;-72
2023/09/26 00:12:32;;;;;;;5.40;3.20;;;;;;;;;;5079503;28;20616;-71
2023/09/26 00:15:00;;;;;;;9.93;4.00;;;;;;;;;;5079496;28;20739;-71
2023/09/26 00:17:28;;;;;;;4.33;3.37;;;;;;;;;;5079558;28;20264;-71
2023/09/26 00:19:57;;;;;;;5.13;3.20;;;;;;;;;;5079628;28;20234;-71
2023/09/26 00:22:25;;;;;;;6.93;3.47;;;;;;;;;;5079550;28;20214;-72
2023/09/26 00:24:55;;;;;;;6.47;4.30;;;;;;;;;;5079173;28;20255;-70
2023/09/26 00:27:23;;;;;;;6.33;3.43;;;;;;;;;;5079500;28;20202;-71
2023/09/26 00:29:51;;;;;;;4.60;3.27;;;;;;;;;;5079398;28;20210;-71
2023/09/26 00:32:19;;;;;;;6.20;3.63;;;;;;;;;;5079320;28;20213;-71
2023/09/26 00:34:47;;;;;;;6.90;3.33;;;;;;;;;;5078950;28;20684;-70
2023/09/26 00:37:15;;;;;;;7.03;3.07;;;;;;;;;;5079204;28;20284;-70
2023/09/26 00:39:43;;;;;;;6.23;3.30;;;;;;;;;;5078411;28;20678;-71
2023/09/26 00:42:13;;;;;;;5.87;3.63;;;;;;;;;;5079181;28;20238;-71
2023/09/26 00:44:41;;;;;;;10.37;3.57;;;;;;;;;;5079064;28;20206;-71
2023/09/26 00:47:09;;;;;;;5.47;3.53;;;;;;;;;;5079052;28;20209;-72
2023/09/26 00:49:37;;;;;;;5.53;3.70;;;;;;;;;;5078791;28;20217;-71
2023/09/26 00:52:05;;;;;;;5.83;3.70;;;;;;;;;;5078505;28;20230;-71
2023/09/26 00:54:34;;;;;;;6.37;3.50;;;;;;;;;;5078541;28;20255;-71
2023/09/26 00:57:03;;;;;;;7.97;3.90;;;;;;;;;;5078574;28;20230;-71
2023/09/26 00:59:33;;;;;;;7.30;3.40;;;;;;;;;;5078811;28;20210;-73
2023/09/26 01:02:01;;;;;;;5.27;3.20;;;;;;;;;;5078815;28;20222;-72
2023/09/26 01:04:29;;;;;;;9.10;3.80;;;;;;;;;;5078799;28;20255;-72
2023/09/26 01:06:58;;;;;;;5.27;3.90;;;;;;;;;;5078448;28;20229;-71
2023/09/26 01:09:26;;;;;;;5.17;3.60;;;;;;;;;;5078017;28;20634;-73
2023/09/26 01:11:54;;;;;;;4.50;3.37;;;;;;;;;;5078282;28;20230;-72
2023/09/26 01:14:22;;;;;;;5.47;3.70;;;;;;;;;;5078259;28;20271;-71
2023/09/26 01:16:55;;;;;;;5.53;3.73;;;;;;;;;;5078438;28;20217;-71
2023/09/26 01:19:24;;;;;;;5.57;3.23;;;;;;;;;;5078247;28;20274;-71
2023/09/26 01:21:53;;;;;;;6.90;3.63;;;;;;;;;;5078053;28;20226;-71
2023/09/26 01:24:22;;;;;;;4.67;3.27;;;;;;;;;;5078035;28;20206;-71
2023/09/26 01:26:50;;;;;;;7.33;3.43;;;;;;;;;;5078304;28;20206;-72
2023/09/26 01:29:18;;;;;;;4.97;3.80;;;;;;;;;;5078365;28;20206;-73
2023/09/26 01:31:46;;;;;;;5.80;3.77;;;;;;;;;;5077908;28;20292;-72
2023/09/26 01:34:14;;;;;;;6.00;3.63;;;;;;;;;;5078021;28;20210;-72
2023/09/26 01:36:42;;;;;;;9.90;3.83;;;;;;;;;;5078191;28;20213;-72
2023/09/26 01:39:11;;;;;;;6.57;3.57;;;;;;;;;;5077747;28;20316;-72
2023/09/26 01:41:41;;;;;;;6.33;3.33;;;;;;;;;;5077974;28;20288;-72
2023/09/26 01:44:09;;;;;;;3.67;3.17;;;;;;;;;;5078164;28;20261;-72
2023/09/26 01:46:37;;;;;;;7.00;3.23;;;;;;;;;;5077626;28;20207;-72
2023/09/26 01:49:05;;;;;;;4.97;3.17;;;;;;;;;;5077784;28;20203;-72
2023/09/26 01:51:33;;;;;;;7.27;3.17;;;;;;;;;;5077434;28;20234;-72
2023/09/26 01:54:01;;;;;;;5.43;3.23;;;;;;;;;;5077709;28;20256;-72
2023/09/26 01:56:32;;;;;;;5.77;2.97;;;;;;;;;;5078075;28;20252;-72
2023/09/26 01:59:01;;;;;;;5.00;3.30;;;;;;;;;;5077941;28;20316;-72
2023/09/26 02:01:31;;;;;;;5.50;3.20;;;;;;;;;;5076998;28;20635;-72
2023/09/26 02:04:00;;;;;;;3.93;3.30;;;;;;;;;;5077906;28;20206;-72
2023/09/26 02:06:28;;;;;;;5.17;2.93;;;;;;;;;;5077586;28;20678;-72
2023/09/26 02:08:56;;;;;;;5.33;3.43;;;;;;;;;;5077449;28;20237;-72
2023/09/26 02:11:24;;;;;;;3.27;2.60;;;;;;;;;;5077544;28;20701;-72
2023/09/26 02:13:52;;;;;;;4.20;3.03;;;;;;;;;;5077498;28;20205;-72
2023/09/26 02:16:22;;;;;;;4.20;3.30;;;;;;;;;;5077763;28;20297;-72
2023/09/26 02:18:50;;;;;;;5.03;3.40;;;;;;;;;;5077640;28;20242;-72
2023/09/26 02:21:18;;;;;;;3.83;3.33;;;;;;;;;;5077705;28;20265;-72
2023/09/26 02:23:46;;;;;;;3.80;3.40;;;;;;;;;;5077004;28;20256;-72
2023/09/26 02:26:17;;;;;;;6.20;3.17;;;;;;;;;;5077761;28;20206;-72
2023/09/26 02:28:45;;;;;;;5.53;3.20;;;;;;;;;;5077423;28;20669;-72
2023/09/26 02:31:15;;;;;;;6.20;3.03;;;;;;;;;;5077574;28;20230;-72
2023/09/26 02:33:45;;;;;;;4.37;2.83;;;;;;;;;;5077564;28;20290;-72
2023/09/26 02:36:13;;;;;;;4.80;3.10;;;;;;;;;;5077561;28;20288;-72
2023/09/26 02:38:41;;;;;;;5.10;2.93;;;;;;;;;;5077062;28;20225;-72
2023/09/26 02:41:09;;;;;;;4.27;2.97;;;;;;;;;;5077211;28;20236;-72
2023/09/26 02:43:37;;;;;;;5.43;2.90;;;;;;;;;;5077443;28;20202;-72
2023/09/26 02:46:05;;;;;;;4.27;2.93;;;;;;;;;;5077516;28;20217;-72
2023/09/26 02:48:33;;;;;;;4.43;2.70;;;;;;;;;;5077182;28;20210;-72
2023/09/26 02:51:05;;;;;;;4.57;2.80;;;;;;;;;;5077117;28;20226;-72
2023/09/26 02:53:33;;;;;;;3.47;2.70;;;;;;;;;;5063746;28;20244;-72
2023/09/26 02:56:01;;;;;;;4.50;3.50;;;;;;;;;;5077046;28;20202;-71
2023/09/26 02:58:29;;;;;;;3.03;2.60;;;;;;;;;;5078191;28;20234;-72
2023/09/26 03:00:58;;;;;;;3.43;2.80;;;;;;;;;;5081070;28;20226;-72
2023/09/26 03:03:26;;;;;;;3.73;3.10;;;;;;;;;;5081039;28;20242;-72
2023/09/26 03:05:54;;;;;;;8.37;3.87;;;;;;;;;;5080711;28;20202;-71
2023/09/26 03:08:23;;;;;;;7.07;4.53;;;;;;;;;;5080584;28;20260;-72
2023/09/26 03:10:52;;;;;;;6.93;3.60;;;;;;;;;;5080894;28;20287;-72
2023/09/26 03:13:20;;;;;;;4.57;2.80;;;;;;;;;;5080673;28;20688;-72
2023/09/26 03:15:55;;;;;;;6.80;3.27;;;;;;;;;;5080533;28;20548;-72
2023/09/26 03:18:23;;;;;;;6.03;3.13;;;;;;;;;;5080473;28;20588;-72
2023/09/26 03:20:51;;;;;;;4.13;3.37;;;;;;;;;;5080463;28;20697;-72
2023/09/26 03:23:19;;;;;;;5.70;3.20;;;;;;;;;;5080365;28;20202;-72
2023/09/26 03:25:48;;;;;;;6.50;3.20;;;;;;;;;;5080708;28;20206;-72
2023/09/26 03:28:16;;;;;;;6.13;3.33;;;;;;;;;;5080441;28;20252;-72
2023/09/26 03:30:46;;;;;;;5.63;3.53;;;;;;;;;;5080525;28;20229;-72
2023/09/26 03:33:14;;;;;;;6.50;3.67;;;;;;;;;;5080414;28;20206;-72
2023/09/26 03:35:42;;;;;;;4.47;3.73;;;;;;;;;;5067453;28;20206;-72
2023/09/26 03:38:10;;;;;;;5.87;3.70;;;;;;;;;;5079270;28;20211;-72
2023/09/26 03:40:39;;;;;;;4.90;3.67;;;;;;;;;;5080186;28;20226;-72
2023/09/26 03:43:09;;;;;;;8.23;3.53;;;;;;;;;;5080404;28;20198;-72
2023/09/26 03:45:37;;;;;;;4.83;3.33;;;;;;;;;;5077748;28;20237;-72
2023/09/26 03:48:06;;;;;;;5.60;3.30;;;;;;;;;;5079493;28;20200;-72
2023/09/26 03:50:35;;;;;;;6.13;3.87;;;;;;;;;;5077327;28;20216;-72
2023/09/26 03:53:03;;;;;;;6.90;3.83;;;;;;;;;;5079309;28;21646;-72
2023/09/26 03:55:31;;;;;;;6.13;3.40;;;;;;;;;;5079775;28;20650;-72
2023/09/26 03:58:00;;;;;;;5.13;3.27;;;;;;;;;;5079598;28;20636;-72
2023/09/26 04:00:30;;;;;;;5.70;3.53;;;;;;;;;;5079107;28;20229;-72
2023/09/26 04:02:58;;;;;;;9.00;4.40;;;;;;;;;;5079483;28;20256;-72
2023/09/26 04:05:26;;;;;;;6.83;4.10;;;;;;;;;;5079484;28;20232;-72
2023/09/26 04:07:54;;;;;;;5.93;3.67;;;;;;;;;;5079304;28;20202;-72
2023/09/26 04:10:22;;;;;;;4.83;3.60;;;;;;;;;;5078843;28;20240;-72
2023/09/26 04:12:50;;;;;;;4.93;3.57;;;;;;;;;;5079334;28;20202;-72
2023/09/26 04:15:18;;;;;;;4.10;3.70;;;;;;;;;;5077609;28;20665;-73
2023/09/26 04:17:48;;;;;;;10.63;4.60;;;;;;;;;;5079358;28;20258;-72
2023/09/26 04:20:19;;;;;;;9.30;4.53;;;;;;;;;;5076394;28;20230;-72
2023/09/26 04:23:04;;;;;;;7.83;4.30;;;;;;;;;;5076960;28;20667;-72
2023/09/26 04:25:33;;;;;;;11.33;4.83;;;;;;;;;;5078939;28;20563;-72
2023/09/26 04:28:01;;;;;;;8.23;4.30;;;;;;;;;;5079124;28;20665;-72
2023/09/26 04:30:30;;;;;;;9.90;3.87;;;;;;;;;;5079413;28;20268;-72
2023/09/26 04:32:59;;;;;;;7.37;3.40;;;;;;;;;;5079288;28;20210;-72
2023/09/26 04:35:27;;;;;;;7.83;4.43;;;;;;;;;;5079226;28;20217;-72
2023/09/26 04:37:55;;;;;;;5.17;3.70;;;;;;;;;;5079322;28;20214;-72
2023/09/26 04:40:23;;;;;;;7.03;3.77;;;;;;;;;;5079026;28;20272;-72
2023/09/26 04:42:52;;;;;;;9.20;4.20;;;;;;;;;;5079250;28;20202;-72
2023/09/26 04:45:20;;;;;;;4.83;3.77;;;;;;;;;;5078978;28;20666;-72
2023/09/26 04:47:48;;;;;;;9.80;4.17;;;;;;;;;;5078936;28;20708;-72
2023/09/26 04:50:18;;;;;;;7.60;3.83;;;;;;;;;;5078704;28;20252;-72
2023/09/26 04:52:46;;;;;;;4.47;3.30;;;;;;;;;;5078383;28;20230;-72
2023/09/26 04:55:15;;;;;;;7.83;4.60;;;;;;;;;;5078490;28;20336;-72
2023/09/26 04:57:44;;;;;;;4.77;3.57;;;;;;;;;;5078563;28;20206;-72
2023/09/26 05:00:17;;;;;;;5.80;3.10;;;;;;;;;;5078514;28;20229;-72
2023/09/26 05:02:45;;;;;;;7.30;3.57;;;;;;;;;;5078211;28;20213;-72
2023/09/26 05:05:14;;;;;;;7.90;3.87;;;;;;;;;;5077837;28;20207;-72
2023/09/26 05:07:46;;;;;;;9.33;3.50;;;;;;;;;;5078564;28;20213;-72
2023/09/26 05:10:14;;;;;;;6.43;3.90;;;;;;;;;;5078113;28;20233;-72
2023/09/26 05:12:43;;;;;;;6.17;4.03;;;;;;;;;;5078325;28;20202;-72
2023/09/26 05:15:12;;;;;;;5.77;4.47;;;;;;;;;;5078370;28;20194;-72
2023/09/26 05:17:41;;;;;;;4.37;3.53;;;;;;;;;;5078503;28;20212;-72
2023/09/26 05:20:11;;;;;;;4.67;3.53;;;;;;;;;;5078157;28;20684;-72
2023/09/26 05:22:40;;;;;;;3.90;3.50;;;;;;;;;;5077574;28;20692;-72
2023/09/26 05:25:10;;;;;;;9.43;4.00;;;;;;;;;;5077850;28;20579;-72
2023/09/26 05:27:39;;;;;;;5.33;3.50;;;;;;;;;;5078516;28;20210;-72
2023/09/26 05:30:09;;;;;;;7.17;4.23;;;;;;;;;;5077848;28;20729;-72
2023/09/26 05:32:37;;;;;;;7.03;3.83;;;;;;;;;;5078361;28;20252;-72
2023/09/26 05:35:06;;;;;;;5.37;4.37;;;;;;;;;;5078191;28;20202;-72
2023/09/26 05:37:34;;;;;;;4.50;3.40;;;;;;;;;;5078438;28;20212;-72
2023/09/26 05:40:06;;;;;;;4.90;3.40;;;;;;;;;;5077184;28;20222;-72
2023/09/26 05:42:36;;;;;;;5.07;3.60;;;;;;;;;;5077946;28;20233;-73
2023/09/26 05:45:05;;;;;;;6.23;4.00;;;;;;;;;;5078311;28;20210;-72
2023/09/26 05:47:34;;;;;;;7.30;4.47;;;;;;;;;;5077916;28;20206;-73
2023/09/26 05:50:03;;;;;;;9.00;3.80;;;;;;;;;;5077954;28;20225;-73
2023/09/26 05:52:31;;;;;;;6.57;3.70;;;;;;;;;;5077668;28;20592;-69
2023/09/26 05:54:59;;;;;;;4.43;3.27;;;;;;;;;;5077419;28;20206;-71
2023/09/26 05:57:27;;;;;;;6.27;4.10;;;;;;;;;;5078072;28;20297;-70
2023/09/26 05:59:57;;;;;;;4.30;3.90;;;;;;;;;;5077450;28;20283;-70
2023/09/26 06:02:25;;;;;;;7.80;3.57;;;;;;;;;;5077750;28;20232;-70
2023/09/26 06:04:56;;;;;;;5.97;3.57;;;;;;;;;;5077946;28;20217;-71
2023/09/26 06:07:27;;;;;;;6.13;3.77;;;;;;;;;;5077817;28;20213;-71
2023/09/26 06:09:56;;;;;;;5.13;4.10;;;;;;;;;;5076548;28;20241;-71
2023/09/26 06:12:36;;;;;;;7.93;4.23;;;;;;;;;;5081339;28;20665;-71
2023/09/26 06:15:07;;;;;;;8.63;6.00;;;;;;;;;;5074987;28;20198;-73
2023/09/26 06:17:36;;;;;;;5.87;4.07;;;;;;;;;;5072463;28;20289;-72
2023/09/26 06:20:07;;;;;;;7.90;4.00;;;;;;;;;;5077140;28;20336;-71
2023/09/26 06:22:35;;;;;;;7.43;4.60;;;;;;;;;;5077470;28;20218;-72
2023/09/26 06:25:04;;;;;;;9.60;4.73;;;;;;;;;;5077232;28;20206;-72
2023/09/26 06:27:34;;;;;;;9.00;3.50;;;;;;;;;;5077346;28;20232;-72
2023/09/26 06:30:02;;;;;;;4.47;3.20;;;;;;;;;;5072967;28;20226;-71
2023/09/26 06:32:31;;;;;;;5.20;3.50;;;;;;;;;;5076378;28;20213;-72
2023/09/26 06:35:00;;;;;;;7.27;3.63;;;;;;;;;;5081394;28;20263;-70
2023/09/26 06:37:28;;;;;;;7.67;4.00;;;;;;;;;;5081424;28;20210;-73
2023/09/26 06:40:00;;;;;;;10.90;4.07;;;;;;;;;;5080803;28;20229;-73
2023/09/26 06:42:28;;;;;;;9.97;3.83;;;;;;;;;;5081965;28;20221;-73
2023/09/26 06:44:57;;;;;;;8.77;4.27;;;;;;;;;;5084445;28;20566;-73
2023/09/26 06:47:26;;;;;;;11.73;4.20;;;;;;;;;;5091707;28;20202;-73
2023/09/26 06:49:59;;;;;;;6.60;3.37;;;;;;;;;;5073184;28;20241;-73
2023/09/26 06:52:31;;;;;;;7.87;3.90;;;;;;;;;;5081309;28;20234;-72
2023/09/26 06:55:09;;;;;;;6.67;3.63;;;;;;;;;;5081345;28;20207;-73
2023/09/26 06:57:38;;;;;;;5.67;3.27;;;;;;;;;;5081282;28;20217;-73
2023/09/26 07:00:11;;;;;;;6.20;4.47;;;;;;;;;;5081101;28;20284;-73
2023/09/26 07:02:40;;;;;;;7.43;4.07;;;;;;;;;;5080933;28;20232;-73
2023/09/26 07:05:11;;;;;;;9.07;3.97;;;;;;;;;;5075131;28;20205;-73
2023/09/26 07:07:40;;;;;;;5.97;3.83;;;;;;;;;;5078007;28;20234;-74
2023/09/26 07:10:10;;;;;;;9.07;4.03;;;;;;;;;;5080761;28;20606;-74
2023/09/26 07:12:39;;;;;;;8.97;3.57;;;;;;;;;;5081102;28;20241;-74
2023/09/26 07:15:09;;;;;;;7.73;3.73;;;;;;;;;;5080636;28;20213;-73
2023/09/26 07:17:38;;;;;;;8.00;3.63;;;;;;;;;;5080851;28;20236;-74
2023/09/26 07:20:13;;;;;;;6.10;3.80;;;;;;;;;;5080542;28;20229;-73
2023/09/26 07:22:41;;;;;;;6.50;4.07;;;;;;;;;;5078380;28;20213;-73
2023/09/26 07:25:10;;;;;;;5.40;3.63;;;;;;;;;;5074221;28;20739;-72
2023/09/26 07:27:39;;;;;;;5.03;3.67;;;;;;;;;;5080660;28;20212;-72
2023/09/26 07:30:09;;;;;;;6.53;4.60;;;;;;;;;;5080308;28;20226;-73
2023/09/26 07:32:37;;;;;;;7.97;3.90;;;;;;;;;;5080204;28;20202;-73
2023/09/26 07:35:05;;;;;;;7.33;4.43;;;;;;;;;;5080224;28;20228;-74
2023/09/26 07:37:35;;;;;;;8.33;4.20;;;;;;;;;;5080403;28;20692;-75
2023/09/26 07:40:05;;;;;;;7.40;4.37;;;;;;;;;;5078903;28;20218;-75
2023/09/26 07:42:35;;;;;;;7.47;4.73;;;;;;;;;;5080338;28;20276;-74
2023/09/26 07:45:04;;;;;;;9.10;4.67;;;;;;;;;;5079432;28;20210;-72
2023/09/26 07:47:32;;;;;;;7.57;4.70;;;;;;;;;;5080031;28;20210;-74
2023/09/26 07:50:01;;;;;;;7.57;3.97;;;;;;;;;;5079865;28;20658;-74
2023/09/26 07:52:29;;;;;;;11.40;4.53;;;;;;;;;;5079806;28;20226;-74
2023/09/26 07:54:58;;;;;;;12.53;4.67;;;;;;;;;;5079755;28;20244;-74
2023/09/26 07:57:27;;;;;;;8.03;4.50;;;;;;;;;;5077479;28;20262;-74
2023/09/26 07:59:55;;;;;;;7.60;4.27;;;;;;;;;;5079550;28;20206;-72
2023/09/26 08:02:23;;;;;;;7.87;4.40;;;;;;;;;;5079829;28;20586;-72
2023/09/26 08:04:52;;;;;;;6.13;3.60;;;;;;;;;;5071391;28;20227;-71
2023/09/26 08:07:21;;;;;;;6.60;4.27;;;;;;;;;;5073768;28;20309;-70
2023/09/26 08:09:49;;;;;;;9.67;4.70;;;;;;;;;;5079216;28;20206;-72
2023/09/26 08:12:18;;;;;;;8.70;3.67;;;;;;;;;;5079792;28;20226;-70
2023/09/26 08:14:46;;;;;;;8.80;3.43;;;;;;;;;;5076667;28;20259;-69
2023/09/26 08:17:15;;;;;;;8.27;3.77;;;;;;;;;;5079367;28;20210;-68
2023/09/26 08:19:44;;;;;;;10.33;5.17;;;;;;;;;;5079684;28;20217;-69
2023/09/26 08:22:12;;;;;;;7.77;4.10;;;;;;;;;;5079206;28;20693;-68
2023/09/26 08:24:40;;;;;;;5.63;3.93;;;;;;;;;;5078790;28;20320;-69
2023/09/26 08:27:08;;;;;;;7.97;3.97;;;;;;;;;;5079111;28;20265;-69
2023/09/26 08:29:37;;;;;;;7.70;4.40;;;;;;;;;;5078646;28;20206;-69
2023/09/26 08:32:05;;;;;;;10.53;4.00;;;;;;;;;;5069042;28;20237;-70
2023/09/26 08:34:34;;;;;;;8.87;4.10;;;;;;;;;;5079360;28;20253;-69
2023/09/26 08:37:02;;;;;;;6.53;3.73;;;;;;;;;;5079256;28;20240;-68
2023/09/26 08:39:30;;;;;;;8.00;3.87;;;;;;;;;;5078804;28;20570;-69
2023/09/26 08:41:59;;;;;;;4.97;3.90;;;;;;;;;;5077098;28;20298;-70
2023/09/26 08:44:27;;;;;;;8.13;4.07;;;;;;;;;;5078855;28;20562;-69
2023/09/26 08:46:57;;;;;;;6.60;4.10;;;;;;;;;;5078991;28;20250;-70
2023/09/26 08:49:25;;;;;;;6.60;4.07;;;;;;;;;;5075481;28;20206;-69
2023/09/26 08:51:53;;;;;;;8.53;4.03;;;;;;;;;;5078420;28;20225;-69
2023/09/26 08:54:22;;;;;;;7.37;4.00;;;;;;;;;;5078084;28;20213;-68
2023/09/26 08:56:50;;;;;;;6.23;2.97;;;;;;;;;;5078886;28;20237;-67
2023/09/26 08:59:19;;;;;;;7.53;3.67;;;;;;;;;;5076538;28;20198;-68
2023/09/26 09:01:49;;;;;;;9.47;3.33;;;;;;;;;;5078554;28;20226;-68
2023/09/26 09:04:21;;;;;;;12.40;3.87;;;;;;;;;;5075075;28;20207;-68
2023/09/26 09:06:49;;;;;;;7.80;3.07;;;;;;;;;;5068861;28;20256;-68
2023/09/26 09:09:17;;;;;;;5.77;3.50;;;;;;;;;;5077916;28;20613;-68
2023/09/26 09:11:46;;;;;;;7.23;3.40;;;;;;;;;;5078467;28;20226;-66
2023/09/26 09:14:13;;;;;;;4.90;3.37;;;;;;;;;;5071298;28;20202;-66
2023/09/26 09:16:54;;;;;;;6.10;3.40;;;;;;;;;;5078404;28;20206;-68
2023/09/26 09:19:43;;;;;;;5.53;2.77;;;;;;;;;;5078325;28;20288;-66
2023/09/26 09:22:15;;;;;;;8.40;3.50;;;;;;;;;;5078001;28;20229;-66
2023/09/26 09:24:43;;;;;;;9.67;3.30;;;;;;;;;;5078153;28;20206;-65
2023/09/26 09:27:11;;;;;;;8.57;3.50;;;;;;;;;;5078387;28;20211;-68
2023/09/26 09:29:40;;;;;;;4.17;3.10;;;;;;;;;;5077834;28;20198;-67
2023/09/26 09:32:08;;;;;;;8.00;3.67;;;;;;;;;;5077980;28;20198;-68
2023/09/26 09:34:38;;;;;;;7.00;3.83;;;;;;;;;;5075470;28;20202;-69
2023/09/26 09:37:06;;;;;;;7.73;4.03;;;;;;;;;;5077541;28;20203;-67
2023/09/26 09:39:34;;;;;;;7.00;3.20;;;;;;;;;;5076935;28;20205;-67
2023/09/26 09:42:03;;;;;;;5.87;3.40;;;;;;;;;;5077727;28;20265;-68
2023/09/26 09:44:32;;;;;;;7.63;3.97;;;;;;;;;;5064620;28;20203;-68
2023/09/26 09:47:03;;;;;;;7.97;3.33;;;;;;;;;;5064468;28;20214;-65
2023/09/26 09:49:32;;;;;;;9.77;3.30;;;;;;;;;;5077771;28;20242;-66
2023/09/26 09:52:04;;;;;;;6.17;3.20;;;;;;;;;;5077348;28;20228;-68
2023/09/26 09:54:33;;;;;;;7.60;3.77;;;;;;;;;;5077408;28;20243;-68
2023/09/26 09:57:07;;;;;;;9.10;3.27;;;;;;;;;;5077620;28;20216;-66
2023/09/26 09:59:37;;;;;;;7.07;2.93;;;;;;;;;;5077818;28;20267;-66
2023/09/26 10:02:05;;;;;;;7.80;3.13;;;;;;;;;;5077864;28;20234;-67
2023/09/26 10:04:34;;;;;;;6.73;3.50;;;;;;;;;;5077928;28;20226;-66
2023/09/26 10:07:04;;;;;;;8.00;3.23;;;;;;;;;;5077411;28;20212;-67
2023/09/26 10:09:34;;;;;;;7.07;3.53;;;;;;;;;;5077250;28;20213;-67
2023/09/26 10:12:02;;;;;;;5.40;3.00;;;;;;;;;;5077691;28;20221;-68
2023/09/26 10:14:32;;;;;;;10.13;4.77;;;;;;;;;;5077458;28;20241;-68
2023/09/26 10:17:02;;;;;;;7.53;3.43;;;;;;;;;;5077211;28;20199;-68
2023/09/26 10:19:31;;;;;;;5.77;3.67;;;;;;;;;;5075574;28;20225;-69
2023/09/26 10:22:21;;;;;;;5.70;3.10;;;;;;;;;;5076570;28;20220;-67
2023/09/26 10:24:52;;;;;;;5.40;3.33;;;;;;;;;;5074996;28;20199;-70
2023/09/26 10:27:25;;;;;;;5.27;3.13;;;;;;;;;;5076984;28;20194;-70
2023/09/26 10:29:59;;;;;;;10.20;3.30;;;;;;;;;;5076903;28;20219;-68
2023/09/26 10:32:32;;;;;;;8.17;3.00;;;;;;;;;;5075161;28;20196;-68
2023/09/26 10:35:03;;;;;;;8.63;4.03;;;;;;;;;;5077161;28;20303;-69
2023/09/26 10:37:33;;;;;;;9.60;3.17;;;;;;;;;;5077555;28;20218;-68
2023/09/26 10:40:01;;;;;;;8.23;2.80;;;;;;;;;;5076958;28;20265;-66
2023/09/26 10:42:29;;;;;;;8.83;6.17;;;;;;;;;;5077175;28;20220;-67
2023/09/26 10:45:17;;;;;;;8.90;5.20;;;;;;;;;;5076942;28;20206;-67
2023/09/26 10:47:45;;;;;;;5.07;2.93;;;;;;;;;;5076474;28;20208;-67
2023/09/26 10:50:33;;;;;;;3.57;2.73;;;;;;;;;;5076962;28;20231;-68
2023/09/26 10:53:04;;;;;;;6.53;2.50;;;;;;;;;;5075860;28;20264;-68
2023/09/26 10:55:33;;;;;;;4.27;2.00;;;;;;;;;;5077099;28;20211;-69
2023/09/26 10:58:02;;;;;;;4.53;2.37;;;;;;;;;;5077173;28;20208;-69
2023/09/26 11:00:30;;;;;;;3.33;2.50;;;;;;;;;;5076985;28;20701;-69
2023/09/26 11:02:58;;;;;;;2.97;2.37;;;;;;;;;;5076957;28;20231;-69
2023/09/26 11:05:46;;;;;;;3.73;2.40;;;;;;;;;;5076926;28;20310;-69
2023/09/26 11:08:17;;;;;;;6.07;2.77;;;;;;;;;;5076502;28;20301;-69
2023/09/26 11:11:05;;;;;;;3.67;2.67;;;;;;;;;;5077003;28;20300;-70
2023/09/26 11:13:33;;;;;;;5.83;2.13;;;;;;;;;;5076975;28;20614;-70
2023/09/26 11:16:01;;;;;;;4.90;2.50;;;;;;;;;;5076819;28;20680;-69
2023/09/26 11:18:29;;;;;;;4.33;2.50;;;;;;;;;;5077322;28;20211;-69
2023/09/26 11:20:59;;;;;;;3.97;2.30;;;;;;;;;;5079758;28;20236;-69
2023/09/26 11:23:49;;;;;;;4.43;2.70;;;;;;;;;;5079914;28;20237;-69
2023/09/26 11:26:17;;;;;;;4.27;2.00;;;;;;;;;;5080425;28;20688;-70
2023/09/26 11:28:46;;;;;;;5.30;2.50;;;;;;;;;;5080197;28;20215;-69
2023/09/26 11:31:15;;;;;;;4.20;2.60;;;;;;;;;;5080242;28;20573;-69
2023/09/26 11:33:43;;;;;;;9.87;2.90;;;;;;;;;;5080264;28;20204;-69
2023/09/26 11:36:12;;;;;;;2.87;2.57;;;;;;;;;;5080197;28;20619;-70
2023/09/26 11:38:46;;;;;;;3.37;2.40;;;;;;;;;;5079987;28;20207;-70
2023/09/26 11:41:16;;;;;;;3.73;2.60;;;;;;;;;;5080151;28;20290;-69
2023/09/26 11:43:47;;;;;;;5.97;2.60;;;;;;;;;;5080123;28;20247;-69
2023/09/26 11:46:15;;;;;;;3.33;2.60;;;;;;;;;;5080250;28;20211;-69
2023/09/26 11:48:44;;;;;;;3.67;2.43;;;;;;;;;;5078302;28;20256;-68
2023/09/26 11:51:12;;;;;;;3.10;2.60;;;;;;;;;;5079607;28;20219;-68
2023/09/26 11:53:40;;;;;;;4.30;2.93;;;;;;;;;;5079272;28;20233;-66
2023/09/26 11:56:09;;;;;;;3.70;2.20;;;;;;;;;;5075519;28;20200;-67
2023/09/26 11:58:40;;;;;;;3.87;2.30;;;;;;;;;;5071276;28;20225;-69
2023/09/26 12:01:08;;;;;;;7.90;3.33;;;;;;;;;;5079555;28;20228;-69
2023/09/26 12:03:36;;;;;;;3.13;2.27;;;;;;;;;;5079529;28;20234;-69
2023/09/26 12:06:05;;;;;;;1.90;1.80;;;;;;;;;;5079685;28;20214;-69
2023/09/26 12:08:34;;;;;;;3.70;2.20;;;;;;;;;;5075873;28;20209;-69
2023/09/26 12:11:02;;;;;;;3.40;2.20;;;;;;;;;;5078918;28;20257;-71
2023/09/26 12:13:30;;;;;;;4.60;2.43;;;;;;;;;;5075775;28;20203;-69
2023/09/26 12:16:00;;;;;;;5.20;2.30;;;;;;;;;;5079943;28;20200;-69
2023/09/26 12:18:28;;;;;;;3.43;2.60;;;;;;;;;;5079924;28;20211;-70
2023/09/26 12:20:56;;;;;;;4.60;2.20;;;;;;;;;;5079764;28;20230;-70
2023/09/26 12:23:26;;;;;;;3.50;2.00;;;;;;;;;;5079457;28;20218;-70
2023/09/26 12:25:55;;;;;;;5.77;2.40;;;;;;;;;;5079133;28;20194;-70
2023/09/26 12:28:23;;;;;;;3.47;2.40;;;;;;;;;;5079457;28;20286;-71
2023/09/26 12:30:51;;;;;;;2.77;2.50;;;;;;;;;;5076811;28;20226;-72
2023/09/26 12:33:22;;;;;;;4.70;2.40;;;;;;;;;;5078869;28;20195;-72
2023/09/26 12:35:50;;;;;;;4.53;2.27;;;;;;;;;;5078498;28;20199;-72
2023/09/26 12:38:18;;;;;;;5.30;2.30;;;;;;;;;;5077883;28;20207;-72
2023/09/26 12:40:46;;;;;;;4.07;2.57;;;;;;;;;;5078488;28;20225;-72
2023/09/26 12:43:14;;;;;;;4.90;3.00;;;;;;;;;;5078785;28;20231;-71
2023/09/26 12:45:42;;;;;;;3.83;2.40;;;;;;;;;;5068398;28;20210;-72
2023/09/26 12:48:11;;;;;;;5.47;2.47;;;;;;;;;;5075034;28;20207;-72
2023/09/26 12:50:40;;;;;;;3.93;2.70;;;;;;;;;;5078837;28;20227;-69
2023/09/26 12:53:08;;;;;;;3.20;1.83;;;;;;;;;;5077835;28;20257;-71
2023/09/26 12:55:36;;;;;;;5.70;3.10;;;;;;;;;;5078346;28;20236;-71
2023/09/26 12:58:04;;;;;;;3.43;2.20;;;;;;;;;;5078396;28;20556;-71
2023/09/26 13:00:34;;;;;;;2.97;2.27;;;;;;;;;;5078150;28;20228;-72
2023/09/26 13:03:03;;;;;;;3.47;2.63;;;;;;;;;;5075799;28;20616;-71
2023/09/26 13:05:31;;;;;;;5.63;2.27;;;;;;;;;;5078284;28;20208;-72
2023/09/26 13:08:01;;;;;;;3.67;2.40;;;;;;;;;;5076319;28;20207;-71
2023/09/26 13:10:31;;;;;;;4.97;1.77;;;;;;;;;;5077874;28;20224;-66
2023/09/26 13:13:05;;;;;;;3.97;2.40;;;;;;;;;;5077036;28;20204;-66
2023/09/26 13:15:33;;;;;;;3.33;2.03;;;;;;;;;;5077541;28;20210;-66
2023/09/26 13:18:01;;;;;;;2.87;2.30;;;;;;;;;;5077756;28;20208;-66
2023/09/26 13:20:29;;;;;;;2.80;2.20;;;;;;;;;;5070353;28;20225;-66
2023/09/26 13:22:57;;;;;;;3.13;1.93;;;;;;;;;;5077992;28;20211;-66
2023/09/26 13:25:27;;;;;;;2.77;2.17;;;;;;;;;;5077949;28;20229;-64
2023/09/26 13:27:55;;;;;;;4.10;2.60;;;;;;;;;;5077869;28;20217;-66
2023/09/26 13:30:28;;;;;;;3.53;2.07;;;;;;;;;;5076743;28;20263;-69
2023/09/26 13:32:57;;;;;;;10.13;5.27;;;;;;;;;;5077997;28;20209;-68
2023/09/26 13:35:27;;;;;;;6.50;2.97;;;;;;;;;;5077952;28;20239;-69
2023/09/26 13:37:55;;;;;;;8.27;2.90;;;;;;;;;;5077629;28;20213;-70
2023/09/26 13:40:24;;;;;;;3.80;2.47;;;;;;;;;;5077967;28;20221;-68
2023/09/26 13:42:56;;;;;;;3.83;2.10;;;;;;;;;;5064300;28;20233;-67
2023/09/26 13:45:24;;;;;;;3.03;2.00;;;;;;;;;;5077670;28;20275;-69
2023/09/26 13:47:52;;;;;;;4.10;2.33;;;;;;;;;;5077612;28;20209;-69
2023/09/26 13:50:20;;;;;;;2.47;2.13;;;;;;;;;;5077915;28;20225;-67
2023/09/26 13:52:48;;;;;;;5.33;2.20;;;;;;;;;;5066777;28;20233;-68
2023/09/26 13:55:17;;;;;;;3.50;2.07;;;;;;;;;;5066314;28;20209;-68
2023/09/26 13:57:45;;;;;;;3.87;2.03;;;;;;;;;;5078074;28;20206;-67
2023/09/26 14:00:15;;;;;;;2.43;2.13;;;;;;;;;;5077337;28;20238;-67
2023/09/26 14:02:43;;;;;;;5.53;2.03;;;;;;;;;;5077726;28;20213;-69
2023/09/26 14:05:11;;;;;;;3.03;1.90;;;;;;;;;;5077697;28;20280;-68
2023/09/26 14:07:42;;;;;;;3.37;2.20;;;;;;;;;;5077530;28;20218;-68
2023/09/26 14:10:10;;;;;;;4.27;2.23;;;;;;;;;;5077580;28;20226;-67
2023/09/26 14:12:38;;;;;;;4.53;1.87;;;;;;;;;;5063530;28;20199;-69
2023/09/26 14:15:07;;;;;;;6.97;2.33;;;;;;;;;;5077518;28;20206;-67
2023/09/26 14:17:37;;;;;;;5.70;2.20;;;;;;;;;;5077558;28;20207;-69
2023/09/26 14:20:07;;;;;;;3.60;2.27;;;;;;;;;;5077502;28;20304;-68
2023/09/26 14:22:37;;;;;;;3.20;2.07;;;;;;;;;;5077358;28;20214;-67
2023/09/26 14:25:09;;;;;;;2.40;2.20;;;;;;;;;;5077599;28;20232;-69
2023/09/26 14:27:38;;;;;;;7.60;1.80;;;;;;;;;;5077697;28;20215;-69
2023/09/26 14:30:08;;;;;;;4.87;2.57;;;;;;;;;;5077592;28;20261;-69
2023/09/26 14:32:38;;;;;;;3.37;2.60;;;;;;;;;;5077401;28;20208;-69
2023/09/26 14:35:07;;;;;;;4.23;2.40;;;;;;;;;;5077370;28;20204;-69
2023/09/26 14:37:36;;;;;;;3.53;2.53;;;;;;;;;;5077298;28;20295;-69
2023/09/26 14:40:04;;;;;;;3.57;2.30;;;;;;;;;;5077106;28;20220;-70
2023/09/26 14:42:33;;;;;;;2.50;2.30;;;;;;;;;;5077499;28;20210;-68
2023/09/26 14:45:01;;;;;;;4.13;2.60;;;;;;;;;;5077426;28;20239;-68
2023/09/26 14:47:29;;;;;;;5.90;2.20;;;;;;;;;;5077157;28;20727;-69
2023/09/26 14:49:58;;;;;;;3.00;2.23;;;;;;;;;;5077123;28;20204;-69
2023/09/26 14:52:27;;;;;;;2.30;2.03;;;;;;;;;;5077010;28;20243;-69
2023/09/26 14:54:55;;;;;;;2.30;2.10;;;;;;;;;;5080248;28;20209;-69